Time;durP1;ratioP1;P1;durP2;ratioP2;P2;SDS_P1;SDS_P2;PMS_P1;PMS_P2;Temp;Humidity;BMP_temperature;BMP_pressure;BME280_temperature;BME280_humidity;BME280_pressure;Samples;Min_cycle;Max_cycle;Signal;HPM_P1;HPM_P2
2021/12/05 00:18:14;;;;;;;36.92;17.98;;;1.70;99.90;;;;;;4950615;29;20100;-85
2021/12/05 00:21:11;;;;;;;44.58;21.27;;;1.70;99.90;;;;;;4969542;29;20027;-84
2021/12/05 00:23:39;;;;;;;45.78;20.73;;;1.80;99.90;;;;;;4966702;28;20119;-84
2021/12/05 00:26:10;;;;;;;39.17;18.75;;;1.80;99.90;;;;;;4965219;29;20070;-84
2021/12/05 00:29:05;;;;;;;54.80;23.70;;;1.90;99.90;;;;;;4966443;28;20027;-84
2021/12/05 00:31:48;;;;;;;36.55;19.20;;;1.90;99.90;;;;;;4969316;29;20107;-84
2021/12/05 00:38:01;;;;;;;41.53;20.40;;;1.80;99.90;;;;;;4971885;29;20023;-85
2021/12/05 00:48:34;;;;;;;;;;;1.90;99.90;;;;;;4974626;29;20031;-84
2021/12/05 00:56:19;;;;;;;43.72;20.42;;;1.90;99.90;;;;;;4973496;29;20183;-84
2021/12/05 00:59:10;;;;;;;39.30;18.65;;;1.90;99.90;;;;;;4953567;29;20031;-81
2021/12/05 01:09:44;;;;;;;43.38;19.20;;;1.90;99.90;;;;;;4975360;29;20027;-81
2021/12/05 01:12:30;;;;;;;36.85;19.02;;;1.90;99.90;;;;;;4960260;28;20063;-84
2021/12/05 01:15:07;;;;;;;35.67;18.58;;;2.00;99.90;;;;;;4959368;29;20058;-84
2021/12/05 01:20:37;;;;;;;35.13;18.52;;;1.90;99.90;;;;;;4945220;29;20028;-82
2021/12/05 01:23:14;;;;;;;40.22;18.98;;;1.90;99.90;;;;;;4973433;28;20046;-83
2021/12/05 01:26:05;;;;;;;39.15;18.35;;;1.90;99.90;;;;;;4957192;29;20035;-83
2021/12/05 01:36:14;;;;;;;39.58;19.10;;;2.00;99.90;;;;;;4957124;29;20042;-83
2021/12/05 01:41:40;;;;;;;32.70;18.38;;;2.00;99.90;;;;;;4954403;29;20063;-83
2021/12/05 02:00:35;;;;;;;36.28;18.42;;;2.10;99.90;;;;;;4960654;29;20095;-84
2021/12/05 02:07:40;;;;;;;34.20;17.92;;;2.10;99.90;;;;;;4974496;28;20027;-84
2021/12/05 02:11:36;;;;;;;;;;;2.00;99.90;;;;;;4971419;29;20016;-83
2021/12/05 02:33:20;;;;;;;35.05;16.83;;;2.10;99.90;;;;;;4963415;28;20041;-81
2021/12/05 02:41:25;;;;;;;31.85;15.50;;;2.20;99.90;;;;;;4978955;28;20167;-84
2021/12/05 02:46:36;;;;;;;33.85;17.27;;;2.20;99.90;;;;;;4980384;28;20043;-82
2021/12/05 02:49:05;;;;;;;31.20;15.98;;;2.30;99.90;;;;;;4979659;28;20028;-81
2021/12/05 02:51:33;;;;;;;33.05;16.45;;;2.30;99.90;;;;;;4961500;29;20035;-83
2021/12/05 02:54:09;;;;;;;29.42;16.02;;;2.20;99.90;;;;;;4979130;28;20043;-84
2021/12/05 02:56:42;;;;;;;27.98;15.95;;;2.20;99.90;;;;;;4963154;28;20027;-82
2021/12/05 03:00:12;;;;;;;31.92;16.48;;;2.20;99.90;;;;;;4980045;28;20018;-83
2021/12/05 03:02:11;;;;;;;29.77;15.23;;;2.20;99.90;;;;;;4950735;28;20047;-83
2021/12/05 03:04:41;;;;;;;34.88;15.88;;;2.20;99.90;;;;;;4970973;29;20100;-84
2021/12/05 03:07:09;;;;;;;28.65;15.70;;;2.20;99.90;;;;;;4964020;29;20035;-84
2021/12/05 03:09:37;;;;;;;29.85;15.85;;;2.20;99.90;;;;;;4947646;29;20037;-84
2021/12/05 03:12:05;;;;;;;30.05;15.23;;;2.30;99.90;;;;;;4947164;28;20035;-85
2021/12/05 03:14:31;;;;;;;28.05;15.00;;;2.30;99.90;;;;;;4964936;29;20023;-85
2021/12/05 03:16:57;;;;;;;33.63;15.98;;;2.30;99.90;;;;;;4964060;29;20544;-83
2021/12/05 03:19:24;;;;;;;30.15;15.77;;;2.40;99.90;;;;;;4963349;29;20020;-84
2021/12/05 03:21:52;;;;;;;31.70;15.50;;;2.30;99.90;;;;;;4945523;29;20027;-85
2021/12/05 03:24:22;;;;;;;30.15;16.30;;;2.30;99.90;;;;;;4944897;29;20027;-86
2021/12/05 03:26:54;;;;;;;35.00;16.98;;;2.30;99.90;;;;;;4944893;29;20027;-86
2021/12/05 03:29:21;;;;;;;37.85;16.70;;;2.40;99.90;;;;;;4945256;29;20031;-86
2021/12/05 03:31:48;;;;;;;32.40;16.83;;;2.40;99.90;;;;;;4962577;29;20034;-84
2021/12/05 03:34:20;;;;;;;34.50;16.30;;;2.40;99.90;;;;;;4945593;29;20071;-85
2021/12/05 03:36:50;;;;;;;37.55;17.92;;;2.50;99.90;;;;;;4961124;29;20086;-85
2021/12/05 03:39:18;;;;;;;36.90;17.80;;;2.40;99.90;;;;;;4949445;29;20031;-87
2021/12/05 03:41:46;;;;;;;36.40;17.98;;;2.40;99.90;;;;;;4956027;29;20031;-85
2021/12/05 03:44:16;;;;;;;36.80;17.92;;;2.40;99.90;;;;;;4961168;29;20011;-87
2021/12/05 03:46:44;;;;;;;35.58;17.75;;;2.50;99.90;;;;;;4949999;29;20039;-86
2021/12/05 03:49:12;;;;;;;33.13;17.75;;;2.50;99.90;;;;;;4949331;29;20035;-86
2021/12/05 03:51:47;;;;;;;33.55;17.17;;;2.40;99.90;;;;;;4948115;29;20032;-86
2021/12/05 03:54:13;;;;;;;33.83;17.25;;;2.50;99.90;;;;;;4932634;29;20043;-86
2021/12/05 03:56:40;;;;;;;34.83;18.05;;;2.60;99.90;;;;;;4932556;29;20047;-86
2021/12/05 03:59:10;;;;;;;35.72;18.77;;;2.60;99.90;;;;;;4947647;29;20035;-86
2021/12/05 04:01:37;;;;;;;35.03;17.92;;;2.50;99.90;;;;;;4966849;28;20027;-86
2021/12/05 04:04:04;;;;;;;35.67;18.50;;;2.60;99.90;;;;;;4955093;29;20113;-87
2021/12/05 04:06:31;;;;;;;36.65;18.25;;;2.40;99.90;;;;;;4971555;29;20483;-85
2021/12/05 04:09:01;;;;;;;40.53;18.98;;;2.50;99.90;;;;;;4968606;29;20035;-86
2021/12/05 04:11:35;;;;;;;35.97;19.25;;;2.40;99.90;;;;;;4965012;28;20020;-84
2021/12/05 04:14:06;;;;;;;40.35;18.80;;;2.40;99.90;;;;;;4982905;28;20035;-83
2021/12/05 04:16:33;;;;;;;39.88;20.25;;;2.40;99.90;;;;;;4966193;29;20130;-85
2021/12/05 04:19:00;;;;;;;39.08;19.20;;;2.40;99.90;;;;;;4982945;28;20034;-86
2021/12/05 04:21:26;;;;;;;41.33;20.80;;;2.30;99.90;;;;;;4966287;28;20019;-83
2021/12/05 04:23:54;;;;;;;42.67;20.23;;;2.30;99.90;;;;;;4964394;29;20236;-84
2021/12/05 04:26:22;;;;;;;43.67;22.02;;;2.30;99.90;;;;;;4958250;29;20031;-85
2021/12/05 04:28:48;;;;;;;40.83;19.98;;;2.30;99.90;;;;;;4956773;29;20031;-86
2021/12/05 04:31:15;;;;;;;42.80;21.10;;;2.30;99.90;;;;;;4971710;29;20042;-86
2021/12/05 04:33:41;;;;;;;40.55;20.08;;;2.40;99.90;;;;;;4951794;29;20380;-87
2021/12/05 04:36:08;;;;;;;38.17;20.65;;;2.30;99.90;;;;;;4936421;29;20102;-86
2021/12/05 04:38:34;;;;;;;38.83;20.02;;;2.40;99.90;;;;;;4950747;29;20032;-86
2021/12/05 04:41:01;;;;;;;43.78;20.48;;;2.30;99.90;;;;;;4968194;29;20070;-86
2021/12/05 04:43:36;;;;;;;42.03;20.15;;;2.40;99.90;;;;;;4951016;29;20031;-86
2021/12/05 04:46:07;;;;;;;38.88;19.80;;;2.40;99.90;;;;;;4970674;29;20031;-86
2021/12/05 04:48:33;;;;;;;38.15;18.67;;;2.50;99.90;;;;;;4968216;29;20087;-85
2021/12/05 04:51:00;;;;;;;37.95;19.80;;;2.50;99.90;;;;;;4964489;29;20459;-85
2021/12/05 04:53:28;;;;;;;41.22;19.35;;;2.50;99.90;;;;;;4947648;29;20483;-86
2021/12/05 04:55:56;;;;;;;39.88;20.00;;;2.40;99.90;;;;;;4949003;29;20038;-86
2021/12/05 04:58:24;;;;;;;38.35;19.90;;;2.50;99.90;;;;;;4966080;29;20032;-86
2021/12/05 05:00:53;;;;;;;38.65;19.63;;;2.60;99.90;;;;;;4947919;29;20019;-86
2021/12/05 05:03:19;;;;;;;39.88;18.98;;;2.60;99.90;;;;;;4950374;29;20407;-86
2021/12/05 05:05:54;;;;;;;37.38;18.25;;;2.60;99.90;;;;;;4950366;29;20074;-86
2021/12/05 05:08:20;;;;;;;38.33;19.23;;;2.60;99.90;;;;;;4967649;29;20549;-86
2021/12/05 05:10:47;;;;;;;39.35;19.27;;;2.70;99.90;;;;;;4965450;29;20063;-84
2021/12/05 05:13:13;;;;;;;35.08;17.95;;;2.80;99.90;;;;;;4963625;28;20031;-86
2021/12/05 05:15:39;;;;;;;38.33;18.92;;;2.80;99.90;;;;;;4946560;29;20411;-86
2021/12/05 05:18:06;;;;;;;39.85;19.58;;;2.70;99.90;;;;;;4965516;29;20031;-85
2021/12/05 05:20:39;;;;;;;43.45;20.42;;;2.70;99.90;;;;;;4967908;29;20202;-86
2021/12/05 05:29:11;;;;;;;40.05;18.67;;;2.80;99.90;;;;;;4891362;29;19919;-86
2021/12/05 05:40:08;;;;;;;39.53;18.77;;;2.80;99.90;;;;;;4977845;28;20023;-85
2021/12/05 05:43:04;;;;;;;36.35;18.40;;;2.80;99.90;;;;;;4981903;28;20027;-83
2021/12/05 05:50:39;;;;;;;42.10;20.38;;;2.80;99.90;;;;;;4963290;29;20028;-86
2021/12/05 05:53:05;;;;;;;37.40;18.88;;;2.80;99.90;;;;;;4998463;23;20125;-86
2021/12/05 05:55:32;;;;;;;40.90;18.85;;;2.80;99.90;;;;;;4989976;28;20030;-87
2021/12/05 06:00:34;;;;;;;40.58;20.02;;;2.80;99.90;;;;;;4983781;28;20073;-85
2021/12/05 06:03:22;;;;;;;39.30;20.20;;;2.80;99.90;;;;;;4980034;28;20061;-86
2021/12/05 06:06:09;;;;;;;38.45;19.13;;;2.90;99.90;;;;;;4975280;28;20061;-87
2021/12/05 06:08:37;;;;;;;38.75;20.05;;;2.90;99.90;;;;;;4994049;28;20035;-88
2021/12/05 06:11:08;;;;;;;42.22;20.45;;;3.00;99.90;;;;;;4992948;28;20033;-87
2021/12/05 06:13:38;;;;;;;37.40;20.10;;;3.00;99.90;;;;;;4976493;28;20039;-87
2021/12/05 06:16:06;;;;;;;40.45;20.15;;;3.00;99.90;;;;;;4980159;28;20023;-86
2021/12/05 06:18:32;;;;;;;44.78;18.52;;;3.00;99.90;;;;;;4980995;28;20487;-86
2021/12/05 06:20:58;;;;;;;40.28;20.48;;;3.00;99.90;;;;;;4982938;28;20023;-86
2021/12/05 06:23:25;;;;;;;38.40;19.70;;;3.00;99.90;;;;;;4999947;28;20019;-86
2021/12/05 06:25:52;;;;;;;40.80;19.95;;;2.90;99.90;;;;;;4966314;28;20045;-86
2021/12/05 06:28:27;;;;;;;36.97;19.80;;;2.90;99.90;;;;;;5000021;28;20057;-86
2021/12/05 06:47:27;;;;;;;39.85;20.17;;;2.80;99.90;;;;;;4941740;28;20062;-87
2021/12/05 06:49:55;;;;;;;44.78;22.15;;;2.80;99.90;;;;;;4976375;28;20031;-87
2021/12/05 06:52:21;;;;;;;41.28;20.48;;;2.80;99.90;;;;;;4975167;28;20039;-88
2021/12/05 06:54:47;;;;;;;45.85;21.10;;;2.80;99.90;;;;;;4992659;28;20038;-87
2021/12/05 06:57:13;;;;;;;43.53;21.40;;;2.90;99.90;;;;;;4961044;28;20031;-86
2021/12/05 06:59:41;;;;;;;42.72;19.92;;;3.00;99.90;;;;;;4993856;28;20079;-86
2021/12/05 07:02:09;;;;;;;44.72;21.73;;;3.00;99.90;;;;;;4976120;28;20067;-86
2021/12/05 07:07:08;;;;;;;39.72;19.83;;;3.00;99.90;;;;;;4992947;28;20046;-87
2021/12/05 07:09:34;;;;;;;39.00;20.65;;;3.00;99.90;;;;;;4996092;28;20050;-87
2021/12/05 07:20:11;;;;;;;45.63;20.77;;;3.30;99.90;;;;;;4982299;28;20022;-85
2021/12/05 07:25:36;;;;;;;40.03;19.23;;;3.50;99.90;;;;;;4946780;28;20090;-86
2021/12/05 07:44:12;;;;;;;39.30;20.05;;;4.00;99.90;;;;;;4994301;28;20111;-84
2021/12/05 07:46:38;;;;;;;37.58;19.15;;;4.10;99.90;;;;;;4993813;28;20019;-87
2021/12/05 07:49:08;;;;;;;38.08;18.30;;;4.20;99.90;;;;;;4977380;28;20027;-86
2021/12/05 07:51:38;;;;;;;39.63;19.08;;;4.20;99.90;;;;;;4991421;28;20042;-88
2021/12/05 07:54:43;;;;;;;37.47;18.67;;;4.20;99.90;;;;;;4988099;28;20039;-88
2021/12/05 07:57:12;;;;;;;41.28;21.02;;;4.20;99.90;;;;;;4968173;28;20042;-87
2021/12/05 08:16:08;;;;;;;;;;;4.60;99.90;;;;;;4986561;28;20113;-87
2021/12/05 08:18:34;;;;;;;34.17;18.63;;;4.70;99.90;;;;;;4986194;28;19960;-87
2021/12/05 08:21:01;;;;;;;38.25;18.90;;;4.80;99.90;;;;;;4989626;28;20117;-87
2021/12/05 08:23:28;;;;;;;40.40;20.25;;;4.90;99.90;;;;;;4992202;28;20047;-88
2021/12/05 08:26:05;;;;;;;43.33;21.25;;;5.00;99.90;;;;;;4992614;28;20119;-87
2021/12/05 08:37:06;;;;;;;42.38;21.33;;;4.70;99.90;;;;;;4998236;28;20023;-85
2021/12/05 09:26:33;;;;;;;3.53;2.42;;;6.30;99.90;;;;;;5001259;28;20023;-85
2021/12/05 09:40:05;;;;;;;3.28;2.15;;;6.20;99.90;;;;;;4981320;28;20035;-87
2021/12/05 09:51:15;;;;;;;12.52;6.15;;;6.10;99.90;;;;;;4989743;28;20062;-88
2021/12/05 10:10:44;;;;;;;6.75;2.30;;;6.10;99.90;;;;;;4991782;28;20070;-87
2021/12/05 10:13:10;;;;;;;4.35;2.63;;;6.10;99.90;;;;;;4993085;28;20050;-88
2021/12/05 10:37:57;;;;;;;4.72;2.50;;;6.10;99.90;;;;;;4997881;28;20053;-88
2021/12/05 10:40:34;;;;;;;4.93;2.20;;;6.00;99.90;;;;;;4960305;28;20030;-89
2021/12/05 10:43:01;;;;;;;2.72;1.88;;;6.00;99.90;;;;;;4997104;28;20102;-87
2021/12/05 10:45:29;;;;;;;2.90;2.00;;;5.90;99.90;;;;;;4967022;28;20027;-88
2021/12/05 10:47:59;;;;;;;3.30;2.03;;;5.90;99.90;;;;;;4983428;28;20029;-87
2021/12/05 10:50:45;;;;;;;6.80;2.88;;;5.90;99.90;;;;;;4982954;28;20007;-87
2021/12/05 10:53:25;;;;;;;6.00;2.88;;;6.00;99.90;;;;;;4999337;28;20037;-87
2021/12/05 10:56:05;;;;;;;6.68;2.63;;;6.10;99.90;;;;;;4999370;28;20022;-86
2021/12/05 10:59:13;;;;;;;7.82;2.40;;;6.20;99.90;;;;;;4999246;28;20019;-87
2021/12/05 11:01:57;;;;;;;4.32;2.50;;;6.20;99.90;;;;;;4993181;28;20022;-86
2021/12/05 11:04:25;;;;;;;6.97;2.40;;;6.20;99.90;;;;;;4992673;28;20039;-88
2021/12/05 11:07:07;;;;;;;5.28;2.42;;;6.10;99.90;;;;;;4976836;28;20026;-88
2021/12/05 11:09:35;;;;;;;5.25;2.72;;;6.10;99.90;;;;;;4990790;28;20027;-88
2021/12/05 11:12:00;;;;;;;6.80;2.40;;;6.30;99.90;;;;;;4976954;28;20041;-87
2021/12/05 11:14:30;;;;;;;6.53;2.60;;;6.40;99.90;;;;;;4998085;28;20034;-87
2021/12/05 11:17:04;;;;;;;4.82;2.38;;;6.60;99.90;;;;;;4999011;28;20021;-87
2021/12/05 11:19:38;;;;;;;6.55;2.95;;;6.60;99.90;;;;;;4982261;28;20119;-86
2021/12/05 11:22:06;;;;;;;7.75;2.97;;;6.70;99.90;;;;;;4995184;28;20030;-87
2021/12/05 11:24:36;;;;;;;4.80;2.45;;;6.70;99.90;;;;;;4974380;28;20023;-88
2021/12/05 11:27:04;;;;;;;6.03;2.63;;;6.80;99.90;;;;;;4979496;28;20108;-86
2021/12/05 11:29:46;;;;;;;5.38;2.97;;;6.70;99.90;;;;;;4997088;28;20023;-87
2021/12/05 11:32:19;;;;;;;7.57;2.70;;;6.80;99.90;;;;;;4996530;28;20031;-88
2021/12/05 11:34:46;;;;;;;7.25;2.40;;;6.80;99.90;;;;;;4997486;28;20030;-89
2021/12/05 11:37:12;;;;;;;4.10;2.47;;;6.80;99.90;;;;;;4980551;28;20019;-87
2021/12/05 11:39:38;;;;;;;7.53;3.33;;;6.70;99.90;;;;;;4979783;28;20086;-86
2021/12/05 11:42:24;;;;;;;8.30;3.05;;;6.70;99.90;;;;;;4996951;28;20022;-86
2021/12/05 11:45:02;;;;;;;4.93;2.20;;;6.80;99.90;;;;;;4978081;28;20047;-88
2021/12/05 11:47:27;;;;;;;6.07;2.75;;;6.70;99.90;;;;;;4996314;28;20091;-88
2021/12/05 11:49:54;;;;;;;4.20;2.30;;;6.80;99.90;;;;;;4972065;28;20026;-89
2021/12/05 11:52:24;;;;;;;3.58;1.75;;;6.80;99.90;;;;;;4971037;28;20031;-88
2021/12/05 11:54:51;;;;;;;4.90;2.00;;;6.90;99.90;;;;;;5022063;23;20046;-85
2021/12/05 11:57:24;;;;;;;5.25;2.25;;;6.90;99.90;;;;;;4998640;28;20018;-84
2021/12/05 11:59:55;;;;;;;7.38;2.35;;;7.00;99.90;;;;;;4982025;28;20045;-83
2021/12/05 12:02:21;;;;;;;6.78;2.25;;;7.00;99.90;;;;;;4981952;28;20026;-84
2021/12/05 12:05:04;;;;;;;6.72;2.15;;;7.10;99.90;;;;;;4980956;28;20045;-85
2021/12/05 12:08:00;;;;;;;5.30;2.05;;;7.10;99.90;;;;;;4980844;28;20035;-86
2021/12/05 12:10:45;;;;;;;4.00;1.90;;;7.20;99.90;;;;;;4996031;28;20031;-85
2021/12/05 12:13:23;;;;;;;4.00;2.22;;;7.10;99.90;;;;;;4962404;28;20066;-86
2021/12/05 12:15:58;;;;;;;9.98;2.63;;;7.20;99.90;;;;;;4979320;28;20045;-86
2021/12/05 12:18:30;;;;;;;;;;;7.10;99.90;;;;;;4998089;28;20035;-87
2021/12/05 12:21:00;;;;;;;14.18;2.50;;;7.20;99.90;;;;;;4964496;28;19910;-85
2021/12/05 12:23:26;;;;;;;10.60;2.50;;;7.20;99.90;;;;;;4996104;28;20470;-85
2021/12/05 12:25:57;;;;;;;5.72;2.20;;;7.20;99.90;;;;;;4966018;28;20034;-85
2021/12/05 12:28:23;;;;;;;4.82;2.60;;;7.20;99.90;;;;;;4982579;28;20015;-86
2021/12/05 12:30:57;;;;;;;3.22;2.03;;;7.20;99.90;;;;;;5000410;28;20019;-84
2021/12/05 12:33:40;;;;;;;6.13;2.38;;;7.30;99.90;;;;;;5000659;28;20031;-86
2021/12/05 12:36:06;;;;;;;5.80;2.03;;;7.30;99.90;;;;;;4982401;28;20046;-86
2021/12/05 12:38:37;;;;;;;7.00;2.67;;;7.30;99.90;;;;;;4983530;28;20042;-86
2021/12/05 12:41:17;;;;;;;5.90;2.58;;;7.10;99.90;;;;;;4982979;28;20066;-86
2021/12/05 12:43:58;;;;;;;8.02;2.22;;;7.10;99.90;;;;;;4995983;28;20034;-86
2021/12/05 12:46:41;;;;;;;5.85;2.75;;;7.10;99.90;;;;;;4978837;28;20090;-86
2021/12/05 12:49:16;;;;;;;7.65;2.67;;;7.10;99.90;;;;;;4980545;28;20039;-85
2021/12/05 12:51:46;;;;;;;;;;;7.20;99.90;;;;;;4993227;28;20030;-84
2021/12/05 12:54:17;;;;;;;5.30;2.28;;;7.30;99.90;;;;;;4996429;28;19918;-86
2021/12/05 12:57:06;;;;;;;7.10;2.17;;;7.20;99.90;;;;;;5000001;28;20022;-86
2021/12/05 12:59:36;;;;;;;3.65;1.83;;;7.20;99.90;;;;;;4999919;28;20026;-86
2021/12/05 13:10:32;;;;;;;6.75;2.30;;;7.10;99.90;;;;;;5000331;28;20031;-87
2021/12/05 13:13:03;;;;;;;5.55;1.90;;;7.10;99.90;;;;;;4982475;28;20054;-85
2021/12/05 13:15:47;;;;;;;6.97;2.30;;;6.90;99.90;;;;;;4999040;28;20033;-86
2021/12/05 13:18:13;;;;;;;3.75;1.40;;;6.90;99.90;;;;;;4982368;28;20015;-88
2021/12/05 13:20:42;;;;;;;4.57;1.98;;;6.90;99.90;;;;;;4981188;28;20007;-87
2021/12/05 13:23:16;;;;;;;5.07;2.53;;;6.90;99.90;;;;;;4977327;28;20030;-87
2021/12/05 13:26:05;;;;;;;7.72;2.28;;;6.80;99.90;;;;;;4996214;28;20031;-84
2021/12/05 13:28:44;;;;;;;3.15;1.50;;;6.70;99.90;;;;;;4979569;28;20113;-86
2021/12/05 13:31:28;;;;;;;3.38;1.85;;;6.70;99.90;;;;;;4961599;28;20106;-85
2021/12/05 13:34:28;;;;;;;4.50;1.92;;;6.60;99.90;;;;;;4976478;28;20031;-86
2021/12/05 13:36:59;;;;;;;3.13;1.70;;;6.40;99.90;;;;;;4994956;28;20043;-87
2021/12/05 13:39:40;;;;;;;11.10;1.70;;;6.40;99.90;;;;;;4993703;28;20075;-86
2021/12/05 13:42:23;;;;;;;3.75;1.38;;;6.30;99.90;;;;;;4978493;28;20545;-87
2021/12/05 13:45:04;;;;;;;4.95;1.55;;;6.30;99.90;;;;;;4973593;28;20066;-86
2021/12/05 13:47:37;;;;;;;3.83;1.38;;;6.20;99.90;;;;;;4989524;28;20510;-86
2021/12/05 13:50:21;;;;;;;6.18;1.70;;;6.20;99.90;;;;;;4992125;28;20046;-86
2021/12/05 13:53:02;;;;;;;6.22;2.08;;;6.10;99.90;;;;;;4996970;28;20041;-86
2021/12/05 13:56:02;;;;;;;4.57;1.73;;;6.10;99.90;;;;;;4980526;28;20037;-85
2021/12/05 13:58:41;;;;;;;7.55;2.08;;;6.10;99.90;;;;;;4973879;28;20035;-85
2021/12/05 14:01:18;;;;;;;5.28;1.88;;;6.00;99.90;;;;;;4989239;28;20467;-86
2021/12/05 14:04:08;;;;;;;7.18;2.10;;;6.00;99.90;;;;;;4998998;28;20025;-82
2021/12/05 14:07:04;;;;;;;3.20;2.00;;;6.00;99.90;;;;;;4998952;28;20038;-86
2021/12/05 14:09:32;;;;;;;4.43;2.25;;;5.90;99.90;;;;;;4966321;28;20058;-83
2021/12/05 14:12:11;;;;;;;5.47;2.10;;;5.90;99.90;;;;;;4996770;28;20049;-84
2021/12/05 14:14:44;;;;;;;4.38;2.75;;;5.80;99.90;;;;;;4997355;28;20542;-85
2021/12/05 14:17:12;;;;;;;8.15;2.63;;;5.90;99.90;;;;;;4991967;28;20390;-84
2021/12/05 14:19:41;;;;;;;6.40;2.50;;;5.80;99.90;;;;;;4969131;28;20129;-84
2021/12/05 14:22:10;;;;;;;6.30;2.25;;;5.80;99.90;;;;;;4970165;28;20034;-84
2021/12/05 14:24:39;;;;;;;3.45;1.90;;;5.80;99.90;;;;;;4987153;28;20031;-86
2021/12/05 14:27:09;;;;;;;4.68;2.08;;;5.80;99.90;;;;;;4969477;28;20030;-86
2021/12/05 14:29:39;;;;;;;5.45;2.58;;;5.80;99.90;;;;;;4972665;28;20033;-86
2021/12/05 14:32:13;;;;;;;4.63;2.47;;;5.80;99.90;;;;;;4986022;28;20027;-87
2021/12/05 14:34:40;;;;;;;4.32;2.10;;;5.70;99.90;;;;;;4986744;28;20031;-84
2021/12/05 14:37:10;;;;;;;5.05;2.60;;;5.80;99.90;;;;;;4989280;28;20053;-82
2021/12/05 14:39:43;;;;;;;4.22;2.33;;;5.70;99.90;;;;;;4968928;28;20041;-86
2021/12/05 14:42:16;;;;;;;9.15;3.33;;;5.70;99.90;;;;;;4986675;28;20034;-85
2021/12/05 14:44:47;;;;;;;7.22;3.17;;;5.80;99.90;;;;;;4987083;28;20118;-86
2021/12/05 14:47:17;;;;;;;6.55;3.15;;;5.70;99.90;;;;;;4955301;28;20031;-84
2021/12/05 14:49:46;;;;;;;8.27;3.25;;;5.80;99.90;;;;;;4972798;28;20034;-85
2021/12/05 14:52:22;;;;;;;7.63;3.33;;;5.80;99.90;;;;;;4978271;28;20031;-86
2021/12/05 14:54:48;;;;;;;4.70;3.00;;;5.70;99.90;;;;;;4981371;28;20015;-83
2021/12/05 14:57:18;;;;;;;8.00;3.53;;;5.80;99.90;;;;;;4975820;28;20170;-86
2021/12/05 14:59:49;;;;;;;6.28;3.50;;;5.70;99.90;;;;;;4995568;28;20027;-86
2021/12/05 15:02:16;;;;;;;9.40;3.60;;;5.70;99.90;;;;;;4977636;28;20019;-87
2021/12/05 15:04:46;;;;;;;14.15;3.90;;;5.60;99.90;;;;;;4987905;28;20034;-86
2021/12/05 15:07:13;;;;;;;7.15;3.67;;;5.60;99.90;;;;;;4987269;28;20023;-85
2021/12/05 15:09:46;;;;;;;10.25;4.10;;;5.60;99.90;;;;;;4973069;28;20023;-86
2021/12/05 15:12:19;;;;;;;7.55;3.35;;;5.60;99.90;;;;;;4970923;28;20030;-86
2021/12/05 15:14:49;;;;;;;5.18;3.45;;;5.60;99.90;;;;;;4987827;28;20054;-85
2021/12/05 15:17:25;;;;;;;10.90;3.97;;;5.60;99.90;;;;;;4969618;28;20034;-85
2021/12/05 15:19:57;;;;;;;9.13;3.90;;;5.60;99.90;;;;;;4987306;28;20050;-86
2021/12/05 15:22:23;;;;;;;7.30;3.78;;;5.60;99.90;;;;;;4985948;28;20023;-87
2021/12/05 15:24:52;;;;;;;6.43;3.90;;;5.60;99.90;;;;;;4972044;28;20034;-86
2021/12/05 15:27:21;;;;;;;6.47;4.28;;;5.60;99.90;;;;;;4973564;28;20034;-84
2021/12/05 15:29:57;;;;;;;7.53;4.07;;;5.60;99.90;;;;;;4991170;28;20023;-86
2021/12/05 15:32:26;;;;;;;11.25;4.63;;;5.70;99.90;;;;;;4974288;28;20027;-86
2021/12/05 15:34:55;;;;;;;7.68;4.63;;;5.60;99.90;;;;;;4972824;28;20034;-86
2021/12/05 15:37:21;;;;;;;11.10;4.22;;;5.70;99.90;;;;;;4971513;28;20031;-86
2021/12/05 15:39:50;;;;;;;7.88;4.03;;;5.60;99.90;;;;;;4988251;28;20019;-87
2021/12/05 15:42:32;;;;;;;8.13;4.35;;;5.60;99.90;;;;;;4988619;28;20035;-87
2021/12/05 15:45:00;;;;;;;10.10;4.45;;;5.60;99.90;;;;;;4989604;28;20031;-86
2021/12/05 15:47:31;;;;;;;10.70;4.45;;;5.60;99.90;;;;;;4958531;28;20023;-87
2021/12/05 15:50:16;;;;;;;14.02;4.82;;;5.60;99.90;;;;;;4993592;28;20418;-86
2021/12/05 15:52:53;;;;;;;10.80;4.85;;;5.60;99.90;;;;;;4977610;28;20047;-86
2021/12/05 15:55:24;;;;;;;7.35;3.65;;;5.50;99.90;;;;;;4979011;28;20077;-85
2021/12/05 15:57:54;;;;;;;7.10;3.97;;;5.50;99.90;;;;;;4994305;28;20081;-86
2021/12/05 16:00:31;;;;;;;9.43;4.50;;;5.50;99.90;;;;;;4996055;28;20098;-85
2021/12/05 16:03:00;;;;;;;8.68;5.30;;;5.50;99.90;;;;;;4996388;28;20049;-84
2021/12/05 16:05:26;;;;;;;8.68;4.22;;;5.50;99.90;;;;;;4997612;28;20031;-83
2021/12/05 16:08:01;;;;;;;7.97;4.93;;;5.40;99.90;;;;;;4997145;28;20100;-84
2021/12/05 16:10:27;;;;;;;8.75;4.88;;;5.40;99.90;;;;;;4979551;28;20027;-83
2021/12/05 16:12:53;;;;;;;12.60;5.28;;;5.50;99.90;;;;;;4997848;28;20038;-83
2021/12/05 16:15:26;;;;;;;11.23;4.68;;;5.40;99.90;;;;;;4980895;28;20031;-85
2021/12/05 16:17:59;;;;;;;11.20;5.05;;;5.50;99.90;;;;;;4977250;28;20031;-86
2021/12/05 16:20:49;;;;;;;12.80;4.95;;;5.50;99.90;;;;;;4994265;28;20023;-88
2021/12/05 16:23:22;;;;;;;11.50;5.68;;;5.40;99.90;;;;;;4981376;28;20109;-82
2021/12/05 16:26:09;;;;;;;8.10;4.90;;;5.30;99.90;;;;;;4981837;28;20042;-82
2021/12/05 16:28:46;;;;;;;11.40;6.45;;;5.20;99.90;;;;;;4981487;28;20023;-81
2021/12/05 16:31:20;;;;;;;11.95;6.13;;;5.20;99.90;;;;;;4965517;28;20023;-83
2021/12/05 16:33:55;;;;;;;10.73;5.30;;;5.30;99.90;;;;;;4998551;28;20026;-85
2021/12/05 16:36:27;;;;;;;12.32;5.45;;;5.30;99.90;;;;;;4996740;28;20104;-85
2021/12/05 16:38:53;;;;;;;12.13;6.25;;;5.30;99.90;;;;;;4973855;28;20166;-87
2021/12/05 16:41:30;;;;;;;9.80;5.60;;;5.20;99.90;;;;;;4953101;28;20022;-86
2021/12/05 16:44:09;;;;;;;8.20;5.40;;;5.30;99.90;;;;;;4970259;28;20031;-86
2021/12/05 16:46:58;;;;;;;10.98;5.88;;;5.30;99.90;;;;;;4968941;28;20038;-86
2021/12/05 16:49:31;;;;;;;11.27;5.38;;;5.20;99.90;;;;;;4986498;28;20049;-86
2021/12/05 16:52:01;;;;;;;8.70;5.70;;;5.20;99.90;;;;;;4969335;28;20407;-86
2021/12/05 16:54:35;;;;;;;9.68;5.50;;;5.20;99.90;;;;;;4985436;28;20039;-86
2021/12/05 16:57:12;;;;;;;7.93;5.10;;;5.20;99.90;;;;;;4987125;28;20030;-88
2021/12/05 16:59:45;;;;;;;8.98;5.63;;;5.20;99.90;;;;;;4972380;28;20489;-86
2021/12/05 17:02:25;;;;;;;9.27;5.88;;;5.20;99.90;;;;;;4989739;28;20543;-84
2021/12/05 17:05:03;;;;;;;8.05;5.60;;;5.20;99.90;;;;;;4970879;28;20098;-87
2021/12/05 17:07:49;;;;;;;15.90;6.60;;;5.20;99.90;;;;;;4989893;28;20034;-85
2021/12/05 17:10:20;;;;;;;13.02;6.60;;;5.20;99.90;;;;;;4994968;28;20019;-85
2021/12/05 17:12:49;;;;;;;12.43;6.20;;;5.30;99.90;;;;;;4994156;28;20035;-86
2021/12/05 17:15:19;;;;;;;9.50;6.45;;;5.30;99.90;;;;;;4993464;28;20018;-85
2021/12/05 17:17:47;;;;;;;11.50;6.20;;;5.30;99.90;;;;;;4992650;28;20046;-86
2021/12/05 17:20:38;;;;;;;12.50;6.18;;;5.30;99.90;;;;;;4973258;28;20026;-86
2021/12/05 17:23:06;;;;;;;12.52;7.50;;;5.30;99.90;;;;;;4989520;28;20031;-86
2021/12/05 17:25:43;;;;;;;14.07;7.80;;;5.30;99.90;;;;;;4974646;28;20034;-85
2021/12/05 17:28:24;;;;;;;13.80;7.80;;;5.30;99.90;;;;;;4975582;28;20042;-86
2021/12/05 17:30:53;;;;;;;10.15;6.35;;;5.30;99.90;;;;;;4994296;28;20110;-85
2021/12/05 17:33:29;;;;;;;14.13;8.00;;;5.30;99.90;;;;;;4982375;28;20043;-84
2021/12/05 17:35:56;;;;;;;11.23;7.32;;;5.20;99.90;;;;;;4995845;28;20023;-86
2021/12/05 17:38:35;;;;;;;10.48;6.22;;;5.20;99.90;;;;;;4994799;28;20046;-86
2021/12/05 17:41:02;;;;;;;16.15;7.15;;;5.10;99.90;;;;;;4998603;28;20027;-83
2021/12/05 17:43:28;;;;;;;11.90;6.72;;;5.00;99.90;;;;;;4960680;28;20089;-86
2021/12/05 17:45:54;;;;;;;12.57;6.53;;;5.00;99.90;;;;;;4990271;28;20049;-85
2021/12/05 17:48:20;;;;;;;14.80;6.40;;;5.00;99.90;;;;;;4973892;28;20095;-85
2021/12/05 17:50:48;;;;;;;19.73;7.35;;;5.00;99.90;;;;;;4974924;28;20090;-85
2021/12/05 17:56:19;;;;;;;14.80;6.57;;;4.90;99.90;;;;;;4935286;29;20068;-87
2021/12/05 18:04:06;;;;;;;19.45;6.25;;;4.70;99.90;;;;;;4921844;29;20040;-88
2021/12/05 18:06:33;;;;;;;12.55;5.55;;;4.70;99.90;;;;;;4941174;29;20027;-88
2021/12/05 18:09:00;;;;;;;14.55;6.28;;;4.70;99.90;;;;;;4941966;29;20043;-87
2021/12/05 18:11:26;;;;;;;11.15;5.63;;;4.70;99.90;;;;;;4942615;29;20087;-87
2021/12/05 18:13:57;;;;;;;14.63;6.47;;;4.60;99.90;;;;;;4941595;29;20036;-87
2021/12/05 18:16:27;;;;;;;10.02;5.75;;;4.60;99.90;;;;;;4941616;29;20080;-87
2021/12/05 18:18:56;;;;;;;13.10;6.47;;;4.60;99.90;;;;;;4941204;29;20038;-87
2021/12/05 18:21:25;;;;;;;12.45;5.90;;;4.60;99.90;;;;;;4940367;29;20067;-89
2021/12/05 18:23:53;;;;;;;14.70;6.30;;;4.60;99.90;;;;;;4942019;29;20012;-88
2021/12/05 18:26:19;;;;;;;15.65;6.05;;;4.70;99.90;;;;;;4941871;29;20020;-88
2021/12/05 18:28:49;;;;;;;13.68;6.38;;;4.70;99.90;;;;;;4941676;29;20029;-88
2021/12/05 18:31:20;;;;;;;14.63;7.10;;;4.70;99.90;;;;;;4942427;29;20039;-88
2021/12/05 18:33:50;;;;;;;15.35;7.05;;;4.70;99.90;;;;;;4940793;29;20060;-88
2021/12/05 18:36:17;;;;;;;12.45;6.20;;;4.70;99.90;;;;;;4941510;29;20042;-88